Time;durP1;ratioP1;P1;durP2;ratioP2;P2;SDS_P1;SDS_P2;PMS_P1;PMS_P2;Temp;Humidity;BMP_temperature;BMP_pressure;BME280_temperature;BME280_humidity;BME280_pressure;Samples;Min_cycle;Max_cycle;Signal;HPM_P1;HPM_P2
2022/12/05 00:01:21;;;;;;;40.35;26.67;;;13.80;61.90;;;;;;6127489;23;20006;-81
2022/12/05 00:03:49;;;;;;;43.58;27.55;;;13.70;61.80;;;;;;6127319;23;20010;-82
2022/12/05 00:06:15;;;;;;;36.47;25.10;;;13.80;61.70;;;;;;6127349;23;20021;-81
2022/12/05 00:08:42;;;;;;;38.85;25.88;;;13.90;61.50;;;;;;6101300;23;20420;-80
2022/12/05 00:11:13;;;;;;;36.67;26.10;;;13.70;61.80;;;;;;6101586;23;20013;-81
2022/12/05 00:13:39;;;;;;;36.63;25.38;;;13.80;61.50;;;;;;6101819;23;20005;-82
2022/12/05 00:16:13;;;;;;;37.10;25.02;;;13.90;61.80;;;;;;6101153;23;20010;-81
2022/12/05 00:18:39;;;;;;;38.05;25.98;;;13.80;61.70;;;;;;6101476;23;20002;-82
2022/12/05 00:21:06;;;;;;;39.33;25.45;;;13.90;61.00;;;;;;6101800;23;20002;-80
2022/12/05 00:23:32;;;;;;;41.30;26.30;;;13.60;62.00;;;;;;6126216;23;20033;-79
2022/12/05 00:26:02;;;;;;;37.05;24.50;;;13.60;62.00;;;;;;6101173;23;20335;-83
2022/12/05 00:28:29;;;;;;;38.30;25.98;;;13.60;61.70;;;;;;6127479;23;20042;-83
2022/12/05 00:30:55;;;;;;;39.17;25.27;;;13.30;62.60;;;;;;6127174;23;19997;-81
2022/12/05 00:33:20;;;;;;;37.20;25.58;;;13.40;62.70;;;;;;6101155;23;20092;-81
2022/12/05 00:35:46;;;;;;;38.22;25.52;;;13.60;62.10;;;;;;6125997;23;20006;-83
2022/12/05 00:38:11;;;;;;;40.53;26.83;;;13.80;61.50;;;;;;6101100;23;20010;-81
2022/12/05 00:40:37;;;;;;;38.63;25.17;;;13.60;61.70;;;;;;6127043;23;20061;-81
2022/12/05 00:43:03;;;;;;;41.15;26.15;;;13.20;63.00;;;;;;6127015;23;20033;-82
2022/12/05 00:45:28;;;;;;;38.08;25.10;;;13.00;63.60;;;;;;6125504;23;20002;-81
2022/12/05 00:47:54;;;;;;;37.33;25.88;;;13.10;64.30;;;;;;6127091;23;20006;-81
2022/12/05 00:50:20;;;;;;;38.30;25.08;;;13.10;63.20;;;;;;6100792;23;20006;-82
2022/12/05 00:52:45;;;;;;;42.72;26.33;;;13.20;63.00;;;;;;6124819;23;20335;-81
2022/12/05 00:55:11;;;;;;;37.88;26.13;;;13.20;63.20;;;;;;6126931;23;20073;-81
2022/12/05 00:57:37;;;;;;;36.83;24.60;;;13.20;62.80;;;;;;6125320;23;20406;-80
2022/12/05 01:00:04;;;;;;;38.67;26.08;;;13.10;63.40;;;;;;6124942;23;20037;-81
2022/12/05 01:02:30;;;;;;;38.05;25.05;;;13.30;62.60;;;;;;6100737;23;20009;-81
2022/12/05 01:04:56;;;;;;;40.47;25.98;;;13.30;62.70;;;;;;6125129;23;20005;-80
2022/12/05 01:07:21;;;;;;;39.92;25.33;;;12.90;63.50;;;;;;6100790;23;20006;-81
2022/12/05 01:09:47;;;;;;;34.80;25.08;;;12.90;63.80;;;;;;6101016;23;20013;-82
2022/12/05 01:12:12;;;;;;;39.45;24.80;;;12.60;64.60;;;;;;6124868;23;20002;-80
2022/12/05 01:14:38;;;;;;;36.13;23.67;;;12.70;64.10;;;;;;6126923;23;20368;-80
2022/12/05 01:17:04;;;;;;;34.75;23.77;;;12.40;64.30;;;;;;6126609;23;20432;-81
2022/12/05 01:19:32;;;;;;;37.47;24.15;;;12.40;65.00;;;;;;6126790;23;20419;-82
2022/12/05 01:21:58;;;;;;;33.83;22.92;;;12.50;64.50;;;;;;6126330;23;20415;-80
2022/12/05 01:24:25;;;;;;;32.40;22.88;;;12.70;64.00;;;;;;6100571;23;20028;-79
2022/12/05 01:26:51;;;;;;;33.72;22.88;;;13.10;63.00;;;;;;6125608;23;20457;-81
2022/12/05 01:29:19;;;;;;;33.15;22.92;;;13.30;62.20;;;;;;6100109;23;20331;-81
2022/12/05 01:31:45;;;;;;;34.78;23.45;;;13.30;62.20;;;;;;6100537;23;20010;-82
2022/12/05 01:34:14;;;;;;;38.80;24.15;;;13.50;62.20;;;;;;6100135;23;20009;-81
2022/12/05 01:36:40;;;;;;;35.83;24.77;;;13.50;61.60;;;;;;6126396;23;19998;-81
2022/12/05 01:39:07;;;;;;;41.97;31.08;;;13.60;61.90;;;;;;6126503;23;20026;-82
2022/12/05 01:41:37;;;;;;;35.30;24.08;;;13.60;61.80;;;;;;6100399;23;20420;-81
2022/12/05 01:44:10;;;;;;;35.80;24.13;;;13.70;61.50;;;;;;6100557;23;20117;-81
2022/12/05 01:46:42;;;;;;;34.85;22.73;;;13.60;61.50;;;;;;6100313;23;20030;-84
2022/12/05 01:49:09;;;;;;;32.45;21.98;;;13.60;61.20;;;;;;6126685;23;20029;-81
2022/12/05 01:51:38;;;;;;;33.17;22.20;;;13.40;61.90;;;;;;6100431;23;19994;-81
2022/12/05 01:54:06;;;;;;;30.58;21.55;;;13.30;62.30;;;;;;6100262;23;20065;-80
2022/12/05 01:56:34;;;;;;;33.38;22.10;;;13.40;61.70;;;;;;6125869;23;20005;-82
2022/12/05 01:59:02;;;;;;;32.63;21.58;;;13.30;62.50;;;;;;6100330;23;19998;-82
2022/12/05 02:01:28;;;;;;;32.65;21.30;;;13.30;61.90;;;;;;6100492;23;20021;-80
2022/12/05 02:03:56;;;;;;;29.40;19.67;;;13.40;61.90;;;;;;6126014;23;20018;-80
2022/12/05 02:06:23;;;;;;;30.58;20.13;;;13.50;61.50;;;;;;6099963;23;20078;-80
2022/12/05 02:08:51;;;;;;;30.00;20.80;;;13.40;61.80;;;;;;6100623;23;20006;-81
2022/12/05 02:11:17;;;;;;;29.90;20.23;;;13.40;61.80;;;;;;6126236;23;20006;-78
2022/12/05 02:14:01;;;;;;;30.90;21.63;;;13.40;61.80;;;;;;6099973;23;20006;-81
2022/12/05 02:17:01;;;;;;;31.27;20.70;;;13.40;61.70;;;;;;6126458;23;20002;-80
2022/12/05 02:19:57;;;;;;;30.15;19.52;;;13.40;61.60;;;;;;6125946;23;20002;-80
2022/12/05 02:22:54;;;;;;;31.65;21.27;;;13.30;61.70;;;;;;6125836;23;20005;-81
2022/12/05 02:25:45;;;;;;;31.73;20.35;;;13.30;62.00;;;;;;6100290;23;20006;-81
2022/12/05 02:28:29;;;;;;;32.50;21.23;;;13.00;62.60;;;;;;6126186;23;20002;-81
2022/12/05 02:31:17;;;;;;;30.67;19.63;;;13.20;62.40;;;;;;6126135;23;19994;-81
2022/12/05 02:34:04;;;;;;;30.40;20.40;;;13.30;62.10;;;;;;6105431;23;20152;-81
2022/12/05 02:36:40;;;;;;;30.80;20.48;;;13.20;62.00;;;;;;6102246;23;20057;-82
2022/12/05 02:39:26;;;;;;;30.73;20.65;;;13.10;62.20;;;;;;6101848;23;20327;-81
2022/12/05 02:41:59;;;;;;;29.25;19.80;;;13.30;61.60;;;;;;6128134;23;20005;-81
2022/12/05 02:44:41;;;;;;;32.55;29.13;;;13.20;62.40;;;;;;6101599;23;20041;-80
2022/12/05 02:47:08;;;;;;;30.23;19.00;;;13.40;62.00;;;;;;6128139;23;20328;-80
2022/12/05 02:49:36;;;;;;;28.92;19.05;;;13.30;62.00;;;;;;6102600;23;20002;-83
2022/12/05 02:52:06;;;;;;;27.70;18.58;;;13.00;62.30;;;;;;6127868;23;20009;-81
2022/12/05 02:54:34;;;;;;;;;;;12.90;62.40;;;;;;6128955;23;20077;-80
2022/12/05 02:57:00;;;;;;;26.25;17.75;;;13.00;62.70;;;;;;6101678;23;19901;-81
2022/12/05 02:59:26;;;;;;;26.13;17.42;;;13.10;62.10;;;;;;6100783;23;20006;-80
2022/12/05 03:01:52;;;;;;;27.00;17.27;;;13.30;62.00;;;;;;6101150;23;20012;-81
2022/12/05 03:04:21;;;;;;;25.15;16.88;;;13.30;61.90;;;;;;6127677;23;20010;-80
2022/12/05 03:06:56;;;;;;;27.33;17.70;;;13.40;61.60;;;;;;6101697;23;20006;-81
2022/12/05 03:09:43;;;;;;;28.77;18.05;;;13.30;61.60;;;;;;6102250;23;20010;-82
2022/12/05 03:12:25;;;;;;;26.20;17.40;;;13.30;62.10;;;;;;6102110;23;20037;-81
2022/12/05 03:15:03;;;;;;;29.58;19.27;;;13.40;62.00;;;;;;6127199;23;20008;-81
2022/12/05 03:17:34;;;;;;;26.92;18.80;;;13.60;61.40;;;;;;6101532;23;20002;-81
2022/12/05 03:20:22;;;;;;;27.13;18.25;;;13.70;61.10;;;;;;6126962;23;20033;-81
2022/12/05 03:22:58;;;;;;;26.08;17.45;;;13.50;61.60;;;;;;6101518;23;20014;-83
2022/12/05 03:25:37;;;;;;;26.80;18.05;;;13.50;61.40;;;;;;6101341;23;20060;-81
2022/12/05 03:28:27;;;;;;;26.77;18.48;;;13.60;61.10;;;;;;6101528;23;20117;-80
2022/12/05 03:30:55;;;;;;;26.58;17.77;;;13.70;60.60;;;;;;6127408;23;20049;-80
2022/12/05 03:33:33;;;;;;;27.85;18.23;;;13.60;61.20;;;;;;6127431;23;20128;-82
2022/12/05 03:35:59;;;;;;;24.85;17.80;;;13.60;61.00;;;;;;6127047;23;20462;-85
2022/12/05 03:38:33;;;;;;;25.45;16.90;;;13.60;60.70;;;;;;6101595;23;20006;-82
2022/12/05 03:41:14;;;;;;;25.48;17.00;;;13.70;60.70;;;;;;6127209;23;20073;-81
2022/12/05 03:43:56;;;;;;;27.95;17.02;;;13.70;60.90;;;;;;6126461;23;20006;-81
2022/12/05 03:46:36;;;;;;;26.45;15.38;;;13.60;61.20;;;;;;6127515;23;20010;-79
2022/12/05 03:49:34;;;;;;;26.17;16.73;;;13.40;61.30;;;;;;6101477;23;20467;-81
2022/12/05 03:52:08;;;;;;;24.42;15.93;;;13.40;61.50;;;;;;6073254;23;20016;-80
2022/12/05 03:54:55;;;;;;;23.38;16.17;;;13.40;61.30;;;;;;6101256;23;20006;-80
2022/12/05 03:57:32;;;;;;;22.90;15.50;;;13.40;61.20;;;;;;6127284;23;19998;-84
2022/12/05 04:00:06;;;;;;;25.70;16.77;;;13.50;60.90;;;;;;6126835;23;20017;-79
2022/12/05 04:02:46;;;;;;;24.23;16.05;;;13.30;61.50;;;;;;6100681;23;20457;-80
2022/12/05 04:05:31;;;;;;;24.75;15.80;;;13.20;61.80;;;;;;6126739;23;20032;-81
2022/12/05 04:08:06;;;;;;;23.08;15.48;;;13.00;62.10;;;;;;6101181;23;20010;-80
2022/12/05 04:10:47;;;;;;;20.98;15.05;;;13.10;62.10;;;;;;6101248;23;20017;-80
2022/12/05 04:13:37;;;;;;;24.95;15.70;;;13.00;62.40;;;;;;6127622;23;20352;-80
2022/12/05 04:19:06;;;;;;;24.67;16.17;;;13.30;61.80;;;;;;6127034;23;20335;-82
2022/12/05 04:21:41;;;;;;;24.52;15.80;;;13.50;61.60;;;;;;6100079;23;20339;-80
2022/12/05 04:27:21;;;;;;;26.65;16.23;;;13.40;61.40;;;;;;6126373;23;20017;-80
2022/12/05 04:30:07;;;;;;;24.00;16.27;;;13.00;61.90;;;;;;6126247;23;20009;-82
2022/12/05 04:32:48;;;;;;;23.30;16.17;;;12.90;62.80;;;;;;6100633;23;20532;-82
2022/12/05 04:35:41;;;;;;;25.70;17.40;;;13.20;62.30;;;;;;6100663;23;20010;-80
2022/12/05 04:38:18;;;;;;;25.80;16.45;;;13.50;61.70;;;;;;6123928;23;20006;-82
2022/12/05 04:40:53;;;;;;;25.88;16.75;;;13.70;61.00;;;;;;6100991;23;20056;-82
2022/12/05 04:43:20;;;;;;;27.20;17.25;;;13.80;60.60;;;;;;6125813;23;20006;-80
2022/12/05 04:45:47;;;;;;;25.00;16.80;;;13.70;60.90;;;;;;6100767;23;20006;-81
2022/12/05 04:48:16;;;;;;;25.25;16.10;;;13.70;60.50;;;;;;6099977;23;20010;-79
2022/12/05 04:50:45;;;;;;;25.38;16.15;;;13.50;61.40;;;;;;6100046;23;20333;-80
2022/12/05 04:53:13;;;;;;;25.73;16.23;;;13.50;61.60;;;;;;6126557;23;20009;-80
2022/12/05 04:55:43;;;;;;;24.38;16.23;;;13.60;61.30;;;;;;6100375;23;20092;-81
2022/12/05 04:58:19;;;;;;;26.08;16.90;;;13.50;61.40;;;;;;6100483;23;20069;-82
2022/12/05 05:00:57;;;;;;;26.13;16.27;;;13.40;61.50;;;;;;6100366;23;20006;-80
2022/12/05 05:03:37;;;;;;;25.52;16.08;;;13.30;61.70;;;;;;6126294;23;20010;-79
2022/12/05 05:06:04;;;;;;;26.17;15.75;;;13.00;62.50;;;;;;6100890;23;20070;-80
2022/12/05 05:08:29;;;;;;;24.92;15.93;;;12.60;63.50;;;;;;6126387;23;20002;-82
2022/12/05 05:11:16;;;;;;;26.67;17.02;;;12.40;64.00;;;;;;6100161;23;20013;-81
2022/12/05 05:13:41;;;;;;;26.70;17.02;;;12.30;64.40;;;;;;6100770;23;20010;-80
2022/12/05 05:16:12;;;;;;;25.55;16.02;;;12.30;64.60;;;;;;6099862;23;20013;-79
2022/12/05 05:18:37;;;;;;;26.10;16.55;;;12.40;63.90;;;;;;6100368;23;20002;-79
2022/12/05 05:21:03;;;;;;;25.23;15.45;;;12.30;64.60;;;;;;6126563;23;20004;-81
2022/12/05 05:23:29;;;;;;;26.83;16.55;;;12.50;64.20;;;;;;6099329;23;20022;-80
2022/12/05 05:25:55;;;;;;;26.17;16.33;;;12.80;63.10;;;;;;6100584;23;20034;-79
2022/12/05 05:28:22;;;;;;;26.10;15.52;;;12.60;63.40;;;;;;6126329;23;20034;-79
2022/12/05 05:30:48;;;;;;;25.92;15.95;;;12.40;64.20;;;;;;6100114;23;20002;-80
2022/12/05 05:33:14;;;;;;;25.90;16.25;;;12.60;64.10;;;;;;6126123;23;20324;-79
2022/12/05 05:35:39;;;;;;;27.05;16.92;;;12.70;63.40;;;;;;6100142;23;20136;-81
2022/12/05 05:38:05;;;;;;;24.50;14.50;;;12.60;63.80;;;;;;6099239;23;20062;-81
2022/12/05 05:40:35;;;;;;;26.67;15.80;;;12.90;63.20;;;;;;6126732;23;20001;-84
2022/12/05 05:43:01;;;;;;;24.33;15.15;;;13.10;62.90;;;;;;6101132;23;20068;-81
2022/12/05 05:45:26;;;;;;;27.92;16.45;;;13.30;62.50;;;;;;6100117;23;19999;-80
2022/12/05 05:47:52;;;;;;;25.75;15.52;;;13.50;61.80;;;;;;6125845;23;20006;-80
2022/12/05 05:50:18;;;;;;;23.58;14.93;;;13.30;62.20;;;;;;6099954;23;20008;-81
2022/12/05 05:52:43;;;;;;;27.38;16.15;;;13.00;62.80;;;;;;6099907;23;20006;-81
2022/12/05 05:55:09;;;;;;;26.23;16.27;;;12.60;63.60;;;;;;6100180;23;20012;-80
2022/12/05 05:57:35;;;;;;;23.70;14.95;;;12.20;64.50;;;;;;6099715;23;20423;-80
2022/12/05 06:00:04;;;;;;;22.98;15.00;;;12.20;65.00;;;;;;6100534;23;20036;-80
2022/12/05 06:02:32;;;;;;;24.90;15.18;;;12.50;64.90;;;;;;6099761;23;20009;-81
2022/12/05 06:04:58;;;;;;;25.23;14.80;;;13.00;63.30;;;;;;6100323;23;20014;-80
2022/12/05 06:07:23;;;;;;;24.38;15.98;;;13.10;63.00;;;;;;6099598;23;20308;-79
2022/12/05 06:09:49;;;;;;;27.20;15.55;;;13.10;63.00;;;;;;6125546;23;20320;-80
2022/12/05 06:12:14;;;;;;;28.73;16.27;;;13.00;62.60;;;;;;6126352;23;20028;-80
2022/12/05 06:14:40;;;;;;;25.05;14.60;;;12.90;63.10;;;;;;6126043;23;20424;-78
2022/12/05 06:17:06;;;;;;;26.45;14.52;;;12.50;64.00;;;;;;6125857;23;20328;-80
2022/12/05 06:19:31;;;;;;;23.50;14.18;;;12.60;64.30;;;;;;6096091;23;20010;-80
2022/12/05 06:21:57;;;;;;;26.33;15.50;;;13.00;63.20;;;;;;6097108;23;20010;-79
2022/12/05 06:24:23;;;;;;;23.85;14.05;;;13.10;63.00;;;;;;6096260;23;20028;-79
2022/12/05 06:26:49;;;;;;;24.15;14.05;;;13.30;62.60;;;;;;6096611;23;20002;-78
2022/12/05 06:29:14;;;;;;;22.20;13.65;;;13.00;62.50;;;;;;6122730;23;20002;-78
2022/12/05 06:31:41;;;;;;;28.30;15.18;;;12.60;63.90;;;;;;6094681;23;20002;-78
2022/12/05 06:34:06;;;;;;;24.08;14.25;;;12.60;64.50;;;;;;6122633;23;20076;-81
2022/12/05 06:36:32;;;;;;;24.05;14.27;;;12.70;63.90;;;;;;6097040;23;20041;-79
2022/12/05 06:38:59;;;;;;;23.52;13.88;;;12.60;64.50;;;;;;6096923;23;20006;-79
2022/12/05 06:41:25;;;;;;;26.88;15.07;;;12.70;64.30;;;;;;6096634;23;20018;-82
2022/12/05 06:43:57;;;;;;;26.38;15.50;;;12.80;64.60;;;;;;6121882;23;20024;-79
2022/12/05 06:46:24;;;;;;;24.65;14.35;;;12.80;64.20;;;;;;6096535;23;20085;-80
2022/12/05 06:48:57;;;;;;;26.83;15.10;;;13.00;63.30;;;;;;6096741;23;20010;-81
2022/12/05 06:51:23;;;;;;;23.83;14.10;;;13.00;63.30;;;;;;6097743;23;20033;-81
2022/12/05 06:53:49;;;;;;;25.30;14.38;;;12.80;64.20;;;;;;6097064;23;20020;-82
2022/12/05 06:56:18;;;;;;;23.33;15.15;;;12.90;64.10;;;;;;6096895;23;20069;-82
2022/12/05 06:58:45;;;;;;;26.63;15.50;;;13.00;63.90;;;;;;6098500;23;20081;-81
2022/12/05 07:04:02;;;;;;;26.48;14.82;;;12.60;64.50;;;;;;6124567;23;20080;-80
2022/12/05 07:06:30;;;;;;;30.67;18.88;;;12.40;65.50;;;;;;6096904;23;20085;-79
2022/12/05 07:08:56;;;;;;;23.83;14.52;;;12.40;65.50;;;;;;6123403;23;20006;-80
2022/12/05 07:11:22;;;;;;;25.55;14.93;;;12.80;64.90;;;;;;6099748;23;20029;-80
2022/12/05 07:13:47;;;;;;;39.70;21.48;;;12.90;64.10;;;;;;6100103;23;20006;-80
2022/12/05 07:16:13;;;;;;;28.23;17.02;;;13.00;63.60;;;;;;6099393;23;20002;-82
2022/12/05 07:18:39;;;;;;;30.27;19.27;;;13.20;63.40;;;;;;6099821;23;20041;-80
2022/12/05 07:21:07;;;;;;;27.92;15.95;;;13.30;63.40;;;;;;6127257;23;19998;-79
2022/12/05 07:23:34;;;;;;;26.88;15.65;;;13.30;62.80;;;;;;6127331;23;20021;-80
2022/12/05 07:26:05;;;;;;;25.88;14.98;;;13.30;63.10;;;;;;6101648;23;20093;-82
2022/12/05 07:28:30;;;;;;;31.75;17.55;;;13.40;63.10;;;;;;6101871;23;20006;-81
2022/12/05 07:31:00;;;;;;;25.02;15.23;;;13.60;62.70;;;;;;6127254;23;19998;-80
2022/12/05 07:33:27;;;;;;;30.67;17.08;;;13.60;62.60;;;;;;6099141;23;20010;-79
2022/12/05 07:35:57;;;;;;;26.27;16.70;;;13.20;63.20;;;;;;6100251;23;20100;-78
2022/12/05 07:38:23;;;;;;;29.08;15.68;;;12.90;64.20;;;;;;6101055;23;20012;-79
2022/12/05 07:40:48;;;;;;;30.48;17.00;;;12.90;64.90;;;;;;6127295;23;20073;-79
2022/12/05 07:43:14;;;;;;;27.40;16.83;;;13.00;64.40;;;;;;6125396;23;20025;-79
2022/12/05 07:45:40;;;;;;;25.20;14.57;;;13.20;64.30;;;;;;6127144;23;19998;-79
2022/12/05 07:48:05;;;;;;;24.55;14.95;;;13.20;63.40;;;;;;6125644;23;20013;-79
2022/12/05 07:50:31;;;;;;;23.15;14.93;;;13.20;64.20;;;;;;6127265;23;20077;-79
2022/12/05 07:52:56;;;;;;;26.48;15.32;;;12.90;64.90;;;;;;6101196;23;20002;-79
2022/12/05 07:55:22;;;;;;;26.88;15.38;;;12.90;65.40;;;;;;6125868;23;20457;-79
2022/12/05 07:57:48;;;;;;;26.48;15.32;;;13.00;64.60;;;;;;6127299;23;20002;-80
2022/12/05 08:00:14;;;;;;;29.13;15.15;;;13.00;64.40;;;;;;6100754;23;20020;-79
2022/12/05 08:02:39;;;;;;;23.00;15.13;;;13.40;63.60;;;;;;6100551;23;19998;-79
2022/12/05 08:05:05;;;;;;;25.38;15.18;;;13.50;62.80;;;;;;6127002;23;20009;-79
2022/12/05 08:07:31;;;;;;;26.95;15.88;;;13.20;63.40;;;;;;6124232;23;20006;-80
2022/12/05 08:09:57;;;;;;;27.65;15.20;;;12.80;64.20;;;;;;6125874;23;20463;-79
2022/12/05 08:12:22;;;;;;;25.02;15.27;;;12.90;64.50;;;;;;6126794;23;20420;-79
2022/12/05 08:14:48;;;;;;;24.67;15.48;;;12.60;65.20;;;;;;6099831;23;19998;-79
2022/12/05 08:17:14;;;;;;;29.65;16.88;;;12.60;65.30;;;;;;6099831;23;20017;-78
2022/12/05 08:19:39;;;;;;;26.90;16.52;;;12.90;65.20;;;;;;6125104;23;20077;-79
2022/12/05 08:22:05;;;;;;;27.70;15.98;;;13.00;64.40;;;;;;6126075;23;20334;-79
2022/12/05 08:24:31;;;;;;;27.67;17.67;;;13.10;64.70;;;;;;6123838;23;20018;-78
2022/12/05 08:26:56;;;;;;;27.20;15.80;;;13.30;64.00;;;;;;6100068;23;20006;-80
2022/12/05 08:29:22;;;;;;;27.13;15.57;;;13.30;64.10;;;;;;6125880;23;20009;-78
2022/12/05 08:31:50;;;;;;;27.00;15.32;;;13.30;63.30;;;;;;6124740;23;20008;-79
2022/12/05 08:34:18;;;;;;;28.10;16.17;;;13.30;63.70;;;;;;6100468;23;20431;-80
2022/12/05 08:36:44;;;;;;;27.20;16.05;;;13.20;64.30;;;;;;6099968;23;20010;-80
2022/12/05 08:39:14;;;;;;;31.52;20.80;;;13.40;63.30;;;;;;6100190;23;20330;-79
2022/12/05 08:41:41;;;;;;;28.10;15.85;;;13.40;63.40;;;;;;6126026;23;20006;-79
2022/12/05 08:44:09;;;;;;;24.95;16.40;;;13.30;64.50;;;;;;6126277;23;20017;-80
2022/12/05 08:46:36;;;;;;;28.83;19.00;;;13.30;64.60;;;;;;6126866;23;19998;-80
2022/12/05 08:49:05;;;;;;;26.08;16.88;;;13.40;63.50;;;;;;6100922;23;20014;-79
2022/12/05 08:51:31;;;;;;;27.90;16.83;;;12.80;65.70;;;;;;6125197;23;20444;-81
2022/12/05 08:53:57;;;;;;;27.38;15.88;;;12.80;66.00;;;;;;6124479;23;20008;-79
2022/12/05 08:56:23;;;;;;;30.73;17.23;;;13.20;65.30;;;;;;6124667;23;20009;-79
2022/12/05 08:58:48;;;;;;;31.50;18.38;;;13.40;64.40;;;;;;6101358;23;20297;-81
2022/12/05 09:01:20;;;;;;;31.17;16.05;;;13.40;64.50;;;;;;6126302;23;20061;-85
2022/12/05 09:03:46;;;;;;;28.45;16.95;;;13.40;64.40;;;;;;6100204;23;20018;-81
2022/12/05 09:06:21;;;;;;;30.63;16.50;;;13.40;64.30;;;;;;6100806;23;20065;-80
2022/12/05 09:08:48;;;;;;;24.98;15.13;;;13.40;64.10;;;;;;6118984;23;20002;-83
2022/12/05 09:11:20;;;;;;;27.75;15.93;;;13.00;65.30;;;;;;6098449;23;20014;-82
2022/12/05 09:13:46;;;;;;;29.10;16.92;;;13.20;65.50;;;;;;6100572;23;20419;-82
2022/12/05 09:16:16;;;;;;;28.48;16.35;;;13.40;64.30;;;;;;6124706;23;20012;-82
2022/12/05 09:18:42;;;;;;;28.10;16.55;;;13.40;64.50;;;;;;6100599;23;20084;-81
2022/12/05 09:21:15;;;;;;;27.60;16.08;;;13.20;65.20;;;;;;6126638;23;20069;-81
2022/12/05 09:23:41;;;;;;;27.73;16.85;;;13.10;64.90;;;;;;6126305;23;20085;-82
2022/12/05 09:26:10;;;;;;;27.10;15.77;;;13.00;65.50;;;;;;6100661;23;20435;-80
2022/12/05 09:28:36;;;;;;;28.60;15.55;;;13.10;65.00;;;;;;6100282;23;20013;-81
2022/12/05 09:31:07;;;;;;;27.20;16.52;;;13.30;65.40;;;;;;6126448;23;20006;-82
2022/12/05 09:33:35;;;;;;;26.77;16.10;;;13.40;64.60;;;;;;6126184;23;20419;-81
2022/12/05 09:36:05;;;;;;;27.48;15.98;;;13.70;63.80;;;;;;6126378;23;20402;-80
2022/12/05 09:38:30;;;;;;;30.10;17.13;;;13.70;63.60;;;;;;6126313;23;20002;-80
2022/12/05 09:41:04;;;;;;;29.00;16.95;;;13.50;63.90;;;;;;6125422;23;20029;-81
2022/12/05 09:43:56;;;;;;;25.63;16.13;;;13.60;64.20;;;;;;6125586;23;20018;-81
2022/12/05 09:47:01;;;;;;;26.85;16.92;;;13.50;64.50;;;;;;6100059;23;20006;-80
2022/12/05 09:49:28;;;;;;;27.55;16.95;;;13.50;64.30;;;;;;6126520;23;20006;-82
2022/12/05 09:51:56;;;;;;;28.75;17.85;;;13.60;64.40;;;;;;6126186;23;20323;-81
2022/12/05 09:54:23;;;;;;;26.92;16.40;;;13.80;64.10;;;;;;6125519;23;20009;-81
2022/12/05 09:56:52;;;;;;;25.02;17.10;;;13.60;63.40;;;;;;6126106;23;20379;-81
2022/12/05 09:59:19;;;;;;;24.80;15.38;;;13.60;63.50;;;;;;6125818;23;20006;-81
2022/12/05 10:02:16;;;;;;;31.20;15.65;;;13.60;63.80;;;;;;6100239;23;20420;-80
2022/12/05 10:04:57;;;;;;;28.10;16.35;;;13.60;64.10;;;;;;6126266;23;20022;-81
2022/12/05 10:07:34;;;;;;;25.80;16.17;;;13.70;64.00;;;;;;6100265;23;20010;-81
2022/12/05 10:10:31;;;;;;;22.30;14.35;;;14.00;63.60;;;;;;6117240;23;19998;-81
2022/12/05 10:13:27;;;;;;;24.67;16.17;;;14.10;63.20;;;;;;6100042;23;20439;-81
2022/12/05 10:16:06;;;;;;;24.48;15.38;;;14.00;63.10;;;;;;6100305;23;20002;-81
2022/12/05 10:18:58;;;;;;;26.15;16.27;;;14.00;63.10;;;;;;6100382;23;20006;-81
2022/12/05 10:21:49;;;;;;;21.40;14.70;;;13.80;63.60;;;;;;6100045;23;20380;-82
2022/12/05 10:24:20;;;;;;;28.25;16.50;;;13.80;63.20;;;;;;6099938;23;20053;-81
2022/12/05 10:26:53;;;;;;;28.40;16.67;;;13.80;63.50;;;;;;6100251;23;20539;-81
2022/12/05 10:29:22;;;;;;;27.48;16.40;;;13.90;63.40;;;;;;6100314;23;20018;-81
2022/12/05 10:31:50;;;;;;;26.40;16.23;;;14.10;63.10;;;;;;6126216;23;20005;-81
2022/12/05 10:34:21;;;;;;;26.52;16.75;;;14.20;62.80;;;;;;6100332;23;20006;-81
2022/12/05 10:37:06;;;;;;;25.00;16.20;;;14.40;62.50;;;;;;6126064;23;19998;-82
2022/12/05 10:39:32;;;;;;;25.13;15.55;;;14.00;63.00;;;;;;6100367;23;20036;-82
2022/12/05 10:41:58;;;;;;;26.75;16.33;;;13.90;63.40;;;;;;6100244;23;20333;-82
2022/12/05 10:44:24;;;;;;;26.70;15.93;;;13.80;63.70;;;;;;6125664;23;20014;-81
2022/12/05 10:46:50;;;;;;;26.15;16.25;;;13.70;64.20;;;;;;6099998;23;20012;-80
2022/12/05 10:49:16;;;;;;;28.98;17.17;;;13.60;64.40;;;;;;6100187;23;20101;-81
2022/12/05 10:51:42;;;;;;;24.67;16.80;;;13.70;63.80;;;;;;6100195;23;20036;-81
2022/12/05 10:54:19;;;;;;;27.23;17.65;;;13.90;63.30;;;;;;6101155;23;20565;-81
2022/12/05 10:56:50;;;;;;;27.85;16.73;;;13.80;63.30;;;;;;6127502;23;20443;-81
2022/12/05 10:59:21;;;;;;;25.55;16.08;;;13.80;63.30;;;;;;6127630;23;20013;-81
2022/12/05 11:01:53;;;;;;;27.05;17.02;;;13.80;63.20;;;;;;6127709;23;20387;-81
2022/12/05 11:04:29;;;;;;;24.75;16.38;;;13.70;63.40;;;;;;6101506;23;20095;-81
2022/12/05 11:07:04;;;;;;;27.10;17.10;;;13.70;64.10;;;;;;6127912;23;19994;-81
2022/12/05 11:09:36;;;;;;;28.13;17.30;;;14.00;63.50;;;;;;6127805;23;20076;-81
2022/12/05 11:12:08;;;;;;;32.38;18.88;;;14.10;62.70;;;;;;6101852;23;20014;-82
2022/12/05 11:14:35;;;;;;;29.90;17.70;;;14.10;63.10;;;;;;6101735;23;20105;-81
2022/12/05 11:17:03;;;;;;;29.88;18.73;;;13.80;63.50;;;;;;6127448;23;19998;-81
2022/12/05 11:19:37;;;;;;;28.77;18.00;;;13.80;63.90;;;;;;6101439;23;20006;-82
2022/12/05 11:22:06;;;;;;;30.80;18.23;;;13.60;64.60;;;;;;6101520;23;20336;-81
2022/12/05 11:24:34;;;;;;;27.77;18.25;;;13.60;64.20;;;;;;6101539;23;20026;-81
2022/12/05 11:27:26;;;;;;;28.00;18.10;;;13.60;64.30;;;;;;6101694;23;20017;-81
2022/12/05 11:29:59;;;;;;;26.55;17.15;;;13.90;63.70;;;;;;6100966;23;20013;-82
2022/12/05 11:32:28;;;;;;;26.50;17.10;;;14.10;62.80;;;;;;6127627;23;19998;-80
2022/12/05 11:35:11;;;;;;;28.95;17.52;;;13.90;63.70;;;;;;6127161;23;20009;-82
2022/12/05 11:37:49;;;;;;;27.65;17.00;;;14.10;63.10;;;;;;6101478;23;20006;-82
2022/12/05 11:40:40;;;;;;;28.73;19.48;;;14.20;62.90;;;;;;6101339;23;20002;-81
2022/12/05 11:43:08;;;;;;;27.08;16.83;;;14.00;62.70;;;;;;6101640;23;20013;-81
2022/12/05 11:45:56;;;;;;;30.38;17.45;;;13.60;63.30;;;;;;6101623;23;20089;-81
2022/12/05 11:48:36;;;;;;;27.50;17.20;;;13.50;64.40;;;;;;6101542;23;20010;-81
2022/12/05 11:51:17;;;;;;;27.42;18.35;;;13.70;63.40;;;;;;6101564;23;20360;-79
2022/12/05 11:53:42;;;;;;;34.65;20.50;;;13.70;63.80;;;;;;6101416;23;20029;-81
2022/12/05 11:56:26;;;;;;;27.13;18.58;;;13.60;63.80;;;;;;6127139;23;20031;-80
2022/12/05 11:59:30;;;;;;;30.20;19.70;;;13.90;63.60;;;;;;6101408;23;20013;-81
2022/12/05 12:02:11;;;;;;;27.55;17.77;;;13.80;63.70;;;;;;5981372;24;20008;-81
2022/12/05 12:04:51;;;;;;;28.35;18.50;;;14.00;63.00;;;;;;5981166;24;20144;-81
2022/12/05 12:07:26;;;;;;;25.90;18.65;;;14.30;62.10;;;;;;5958299;24;20352;-81
2022/12/05 12:10:04;;;;;;;30.15;20.65;;;14.50;61.80;;;;;;5981440;24;20012;-81
2022/12/05 12:12:41;;;;;;;29.23;19.92;;;14.60;61.60;;;;;;5981880;24;20000;-81
2022/12/05 12:15:37;;;;;;;28.10;18.45;;;14.60;61.70;;;;;;5957992;24;20430;-81
2022/12/05 12:18:22;;;;;;;37.08;21.38;;;14.60;61.80;;;;;;5957780;24;20004;-81
2022/12/05 12:21:05;;;;;;;29.55;19.60;;;14.50;62.00;;;;;;5958255;24;20004;-81
2022/12/05 12:23:42;;;;;;;30.15;19.83;;;14.60;61.70;;;;;;5980991;23;20024;-81
2022/12/05 12:26:28;;;;;;;26.60;19.45;;;14.70;61.40;;;;;;5958185;24;20091;-81
2022/12/05 12:29:22;;;;;;;27.23;17.90;;;14.90;61.30;;;;;;5981462;24;20008;-81
2022/12/05 12:32:02;;;;;;;27.20;17.73;;;14.90;61.20;;;;;;5972613;23;20015;-81
2022/12/05 12:34:35;;;;;;;27.15;17.20;;;15.00;60.70;;;;;;6091167;23;20010;-81
2022/12/05 12:37:26;;;;;;;25.15;17.67;;;15.20;60.30;;;;;;6126753;23;20106;-82
2022/12/05 12:40:15;;;;;;;27.60;19.15;;;15.00;60.50;;;;;;6126695;23;20081;-81
2022/12/05 12:43:04;;;;;;;25.70;18.30;;;14.80;61.10;;;;;;6126732;23;20005;-83
2022/12/05 12:45:44;;;;;;;27.45;18.80;;;14.80;61.00;;;;;;6126937;23;20013;-81
2022/12/05 12:48:44;;;;;;;25.17;17.67;;;14.40;62.10;;;;;;6101108;23;20005;-81
2022/12/05 12:51:12;;;;;;;26.83;18.23;;;14.30;62.00;;;;;;6126986;23;20002;-81
2022/12/05 12:54:10;;;;;;;25.83;17.73;;;14.10;62.90;;;;;;6100932;23;20006;-81
2022/12/05 12:56:49;;;;;;;28.77;19.05;;;14.50;62.00;;;;;;5981328;23;20386;-81
2022/12/05 12:59:52;;;;;;;25.92;17.15;;;14.60;61.80;;;;;;5980979;24;20108;-81
2022/12/05 13:02:58;;;;;;;24.48;16.92;;;14.60;61.70;;;;;;5980866;23;20012;-81